createdAt,value
2022-08-14T00:02:03.032Z,18.98
2022-08-14T00:04:52.877Z,15.18
2022-08-14T00:07:35.645Z,17.58
2022-08-14T00:10:51.569Z,18.88
2022-08-14T00:13:37.038Z,17.10
2022-08-14T00:16:44.275Z,17.27
2022-08-14T00:19:31.039Z,16.42
2022-08-14T00:22:44.433Z,16.90
2022-08-14T00:25:19.912Z,18.40
2022-08-14T00:28:15.417Z,16.42
2022-08-14T00:30:58.148Z,17.73
2022-08-14T00:33:50.802Z,21.42
2022-08-14T00:36:49.091Z,21.73
2022-08-14T00:39:30.564Z,21.95
2022-08-14T00:42:21.191Z,18.05
2022-08-14T00:45:16.788Z,17.98
2022-08-14T00:47:56.879Z,17.70
2022-08-14T00:50:39.922Z,19.20
2022-08-14T00:53:20.045Z,19.30
2022-08-14T00:56:06.967Z,19.05
2022-08-14T00:58:48.318Z,19.95
2022-08-14T01:01:29.387Z,16.42
2022-08-14T01:04:38.419Z,18.45
2022-08-14T01:07:24.395Z,16.95
2022-08-14T01:10:10.752Z,15.27
2022-08-14T01:13:03.023Z,17.42
2022-08-14T01:15:57.690Z,15.25
2022-08-14T01:19:02.095Z,15.07
2022-08-14T01:21:47.148Z,16.77
2022-08-14T01:24:36.473Z,17.05
2022-08-14T01:27:20.222Z,16.90
2022-08-14T01:30:04.679Z,17.02
2022-08-14T01:32:43.454Z,16.75
2022-08-14T01:36:04.056Z,18.42
2022-08-14T01:38:37.370Z,17.60
2022-08-14T01:41:18.871Z,15.98
2022-08-14T01:44:06.157Z,17.25
2022-08-14T01:47:22.127Z,15.88
2022-08-14T01:50:10.191Z,15.88
2022-08-14T01:52:59.834Z,17.08
2022-08-14T01:55:41.643Z,20.30
2022-08-14T01:58:28.965Z,18.40
2022-08-14T02:01:06.112Z,18.52
2022-08-14T02:03:53.354Z,18.90
2022-08-14T02:06:38.286Z,15.18
2022-08-14T02:09:19.362Z,20.30
2022-08-14T02:12:01.045Z,16.38
2022-08-14T02:14:40.030Z,18.00
2022-08-14T02:17:43.649Z,17.92
2022-08-14T02:20:24.098Z,15.07
2022-08-14T02:23:05.638Z,15.10
2022-08-14T02:25:54.518Z,14.35
2022-08-14T02:28:57.975Z,15.32
2022-08-14T02:31:44.166Z,19.08
2022-08-14T02:34:29.312Z,15.77
2022-08-14T02:37:06.761Z,14.98
2022-08-14T02:39:50.833Z,15.65
2022-08-14T02:42:39.473Z,13.55
2022-08-14T02:45:23.886Z,13.90
2022-08-14T02:47:58.864Z,17.50
2022-08-14T02:50:44.750Z,15.40
2022-08-14T02:53:35.327Z,14.20
2022-08-14T02:56:30.320Z,16.50
2022-08-14T02:59:23.457Z,15.90
2022-08-14T03:02:49.553Z,15.80
2022-08-14T03:05:21.039Z,13.70
2022-08-14T03:07:59.319Z,14.30
2022-08-14T03:10:49.388Z,14.77
2022-08-14T03:13:35.816Z,13.82
2022-08-14T03:16:26.820Z,15.38
2022-08-14T03:19:16.038Z,14.93
2022-08-14T03:22:04.975Z,15.27
2022-08-14T03:24:49.966Z,15.25
2022-08-14T03:27:35.471Z,15.63
2022-08-14T03:30:39.476Z,15.20
2022-08-14T03:33:37.997Z,15.63
2022-08-14T03:37:37.445Z,15.77
2022-08-14T03:39:40.888Z,17.90
2022-08-14T03:42:36.531Z,15.02
2022-08-14T03:45:34.448Z,18.77
2022-08-14T03:48:31.318Z,18.83
2022-08-14T03:51:20.590Z,19.60
2022-08-14T03:54:01.523Z,21.73
2022-08-14T03:56:44.793Z,22.27
2022-08-14T03:59:28.512Z,23.70
2022-08-14T04:02:31.816Z,20.30
2022-08-14T04:05:16.472Z,22.02
2022-08-14T04:08:22.433Z,19.90
2022-08-14T04:11:10.353Z,19.30
2022-08-14T04:13:52.576Z,21.73
2022-08-14T04:16:31.731Z,21.67
2022-08-14T04:19:32.729Z,21.38
2022-08-14T04:22:10.012Z,23.10
2022-08-14T04:24:49.623Z,26.20
2022-08-14T04:27:32.025Z,23.10
2022-08-14T04:30:42.444Z,22.20
2022-08-14T04:33:24.904Z,25.10
2022-08-14T04:36:09.310Z,25.00
2022-08-14T04:39:20.837Z,29.73
2022-08-14T04:42:18.049Z,24.05
2022-08-14T04:45:00.830Z,26.33
2022-08-14T04:48:01.936Z,28.80
2022-08-14T04:50:44.305Z,28.73
2022-08-14T04:53:36.179Z,30.23
2022-08-14T04:56:30.695Z,26.45
2022-08-14T04:59:17.689Z,20.02
2022-08-14T05:02:04.706Z,24.08
2022-08-14T05:04:45.400Z,23.90
2022-08-14T05:07:54.086Z,17.75
2022-08-14T05:10:32.580Z,14.80
2022-08-14T05:13:24.567Z,12.80
2022-08-14T05:16:17.933Z,14.63
2022-08-14T05:19:18.400Z,12.75
2022-08-14T05:22:17.099Z,12.13
2022-08-14T05:24:57.842Z,13.70
2022-08-14T05:27:35.590Z,13.02
2022-08-14T05:30:15.054Z,10.65
2022-08-14T05:32:59.963Z,10.55
2022-08-14T05:35:42.920Z,8.98
2022-08-14T05:38:22.446Z,9.50
2022-08-14T05:41:19.538Z,8.75
2022-08-14T05:43:57.168Z,8.88
2022-08-14T05:46:44.236Z,7.35
2022-08-14T05:49:32.778Z,8.90
2022-08-14T05:52:18.353Z,8.98
2022-08-14T05:55:01.790Z,11.52
2022-08-14T05:57:59.589Z,8.55
2022-08-14T06:00:46.018Z,10.15
2022-08-14T06:03:22.573Z,10.77
2022-08-14T06:06:11.859Z,9.57
2022-08-14T06:08:48.082Z,10.30
2022-08-14T06:11:31.021Z,12.35
2022-08-14T06:14:21.525Z,8.40
2022-08-14T06:17:02.582Z,9.45
2022-08-14T06:19:44.043Z,11.25
2022-08-14T06:22:22.156Z,12.38
2022-08-14T06:25:07.586Z,9.35
2022-08-14T06:27:51.530Z,8.70
2022-08-14T06:30:46.271Z,9.20
2022-08-14T06:33:45.719Z,8.68
2022-08-14T06:36:32.514Z,10.15
2022-08-14T06:39:36.516Z,9.43
2022-08-14T06:42:32.658Z,13.60
2022-08-14T06:45:09.132Z,13.52
2022-08-14T06:47:45.933Z,9.48
2022-08-14T06:50:30.803Z,7.70
2022-08-14T06:53:14.572Z,8.07
2022-08-14T06:55:53.178Z,14.15
2022-08-14T06:58:44.808Z,8.45
2022-08-14T07:01:42.230Z,7.88
2022-08-14T07:04:36.408Z,10.48
2022-08-14T07:07:17.060Z,10.93
2022-08-14T07:09:58.727Z,9.77
2022-08-14T07:13:01.655Z,7.82
2022-08-14T07:15:49.207Z,10.60
2022-08-14T07:18:40.801Z,7.82
2022-08-14T07:21:16.598Z,9.05
2022-08-14T07:24:09.702Z,6.70
2022-08-14T07:27:05.835Z,10.50
2022-08-14T07:29:50.257Z,11.27
2022-08-14T07:32:34.032Z,9.82
2022-08-14T07:35:16.054Z,6.00
2022-08-14T07:37:59.845Z,7.60
2022-08-14T07:43:28.312Z,7.20
2022-08-14T07:46:09.163Z,8.15
2022-08-14T07:48:53.797Z,8.18
2022-08-14T07:54:16.608Z,7.15
2022-08-14T07:57:11.893Z,10.50
2022-08-14T07:59:56.422Z,8.10
2022-08-14T08:02:36.375Z,6.65
2022-08-14T08:05:24.044Z,7.75
2022-08-14T08:08:04.512Z,10.38
2022-08-14T08:11:02.409Z,8.05
2022-08-14T08:13:54.568Z,7.65
2022-08-14T08:16:39.510Z,8.95
2022-08-14T08:19:19.354Z,9.98
2022-08-14T08:21:58.121Z,9.32
2022-08-14T08:24:39.036Z,9.32
2022-08-14T08:27:25.896Z,7.80
2022-08-14T08:30:11.440Z,11.55
2022-08-14T08:33:00.533Z,9.73
2022-08-14T08:35:46.957Z,10.82
2022-08-14T08:39:18.342Z,10.13
2022-08-14T08:41:41.709Z,8.90
2022-08-14T08:44:32.045Z,8.20
2022-08-14T08:47:11.037Z,11.57
2022-08-14T08:49:59.183Z,12.00
2022-08-14T08:52:31.533Z,13.57
2022-08-14T08:55:18.037Z,7.95
2022-08-14T08:58:12.371Z,7.95
2022-08-14T09:00:54.164Z,9.02
2022-08-14T09:03:29.139Z,8.68
2022-08-14T09:06:53.855Z,9.57
2022-08-14T09:09:54.188Z,8.68
2022-08-14T09:12:46.730Z,7.60
2022-08-14T09:15:25.384Z,9.60
2022-08-14T09:18:15.477Z,8.95
2022-08-14T09:20:58.882Z,12.20
2022-08-14T09:24:26.158Z,10.82
2022-08-14T09:26:39.689Z,8.18
2022-08-14T09:29:28.768Z,6.88
2022-08-14T09:32:03.989Z,7.40
2022-08-14T09:35:14.965Z,7.47
2022-08-14T09:38:19.445Z,7.75
2022-08-14T09:42:21.586Z,7.35
2022-08-14T09:45:08.796Z,8.07
2022-08-14T09:47:56.729Z,9.45
2022-08-14T09:50:48.113Z,5.72
2022-08-14T09:54:19.355Z,8.52
2022-08-14T09:56:57.064Z,8.25
2022-08-14T09:59:42.344Z,5.25
2022-08-14T10:02:31.180Z,6.28
2022-08-14T10:05:13.324Z,7.13
2022-08-14T10:07:59.019Z,7.43
2022-08-14T10:10:39.090Z,8.32
2022-08-14T10:13:28.159Z,5.90
2022-08-14T10:16:22.001Z,5.07
2022-08-14T10:19:16.019Z,8.47
2022-08-14T10:23:13.550Z,6.28
2022-08-14T10:25:20.173Z,5.20
2022-08-14T10:28:03.957Z,5.95
2022-08-14T10:30:37.867Z,5.63
2022-08-14T10:33:26.532Z,7.03
2022-08-14T10:36:05.389Z,6.53
2022-08-14T10:38:44.386Z,7.07
2022-08-14T10:41:46.529Z,6.70
2022-08-14T10:44:32.760Z,14.00
2022-08-14T10:47:40.959Z,11.25
2022-08-14T10:50:07.445Z,5.60
2022-08-14T10:52:46.785Z,6.88
2022-08-14T10:55:22.681Z,10.02
2022-08-14T10:57:58.325Z,13.85
2022-08-14T11:00:38.644Z,5.45
2022-08-14T11:03:55.299Z,6.85
2022-08-14T11:06:30.246Z,10.10
2022-08-14T11:09:16.891Z,7.88
2022-08-14T11:12:33.943Z,8.43
2022-08-14T11:15:04.188Z,5.95
2022-08-14T11:17:46.494Z,8.80
2022-08-14T11:20:36.222Z,5.32
2022-08-14T11:23:10.935Z,12.18
2022-08-14T11:25:53.281Z,6.78
2022-08-14T11:28:46.167Z,8.40
2022-08-14T11:31:35.608Z,9.35
2022-08-14T11:34:32.302Z,9.82
2022-08-14T11:37:31.584Z,8.48
2022-08-14T11:40:29.371Z,9.75
2022-08-14T11:43:05.312Z,6.97
2022-08-14T11:45:43.726Z,5.75
2022-08-14T11:49:02.018Z,7.47
2022-08-14T11:51:30.665Z,7.00
2022-08-14T11:54:13.991Z,9.45
2022-08-14T11:56:57.239Z,5.05
2022-08-14T11:59:44.243Z,6.50
2022-08-14T12:02:38.891Z,6.15
2022-08-14T12:05:28.110Z,8.30
2022-08-14T12:08:02.912Z,6.40
2022-08-14T12:10:46.165Z,10.40
2022-08-14T12:13:28.706Z,6.45
2022-08-14T12:16:11.225Z,11.38
2022-08-14T12:19:01.357Z,5.88
2022-08-14T12:21:36.913Z,11.27
2022-08-14T12:24:31.763Z,7.90
2022-08-14T12:27:24.965Z,6.93
2022-08-14T12:30:03.325Z,10.65
2022-08-14T12:32:47.710Z,4.82
2022-08-14T12:38:01.600Z,7.18
2022-08-14T12:40:47.666Z,6.18
2022-08-14T12:43:33.580Z,7.10
2022-08-14T12:46:27.280Z,5.43
2022-08-14T12:49:16.138Z,5.30
2022-08-14T12:52:03.086Z,8.90
2022-08-14T12:54:57.584Z,6.50
2022-08-14T12:57:53.133Z,5.15
2022-08-14T13:00:32.776Z,6.88
2022-08-14T13:03:11.228Z,5.72
2022-08-14T13:05:48.601Z,5.88
2022-08-14T13:08:33.986Z,8.93
2022-08-14T13:11:16.479Z,6.80
2022-08-14T13:14:03.091Z,6.22
2022-08-14T13:16:50.189Z,5.88
2022-08-14T13:19:26.807Z,9.93
2022-08-14T13:22:10.065Z,8.32
2022-08-14T13:24:57.192Z,5.63
2022-08-14T13:27:39.142Z,6.90
2022-08-14T13:30:23.728Z,7.93
2022-08-14T13:33:02.262Z,6.97
2022-08-14T13:35:43.170Z,7.10
2022-08-14T13:38:26.430Z,10.35
2022-08-14T13:41:06.198Z,6.38
2022-08-14T13:43:49.247Z,5.13
2022-08-14T13:46:45.933Z,6.00
2022-08-14T13:49:23.837Z,10.13
2022-08-14T13:52:48.793Z,4.97
2022-08-14T13:55:08.687Z,6.63
2022-08-14T13:58:03.016Z,15.55
2022-08-14T14:00:52.925Z,6.82
2022-08-14T14:03:35.895Z,8.48
2022-08-14T14:06:13.615Z,9.40
2022-08-14T14:08:55.056Z,5.57
2022-08-14T14:11:34.965Z,5.95
2022-08-14T14:14:44.832Z,5.57
2022-08-14T14:17:18.710Z,5.90
2022-08-14T14:20:00.639Z,7.20
2022-08-14T14:23:02.225Z,7.00
2022-08-14T14:25:45.835Z,7.32
2022-08-14T14:28:29.868Z,7.70
2022-08-14T14:31:06.218Z,6.88
2022-08-14T14:33:50.737Z,8.23
2022-08-14T14:36:32.752Z,6.35
2022-08-14T14:39:08.776Z,6.28
2022-08-14T14:41:46.341Z,4.82
2022-08-14T14:44:35.958Z,11.63
2022-08-14T14:47:22.779Z,7.35
2022-08-14T14:49:57.347Z,5.13
2022-08-14T14:52:37.113Z,5.18
2022-08-14T14:55:10.482Z,4.68
2022-08-14T14:57:52.202Z,5.20
2022-08-14T15:00:32.759Z,11.20
2022-08-14T15:03:16.237Z,7.70
2022-08-14T15:05:47.833Z,7.10
2022-08-14T15:08:26.628Z,8.38
2022-08-14T15:11:23.540Z,7.03
2022-08-14T15:14:56.121Z,6.20
2022-08-14T15:17:12.109Z,6.47
2022-08-14T15:19:56.248Z,6.78
2022-08-14T15:22:40.290Z,9.75
2022-08-14T15:25:43.903Z,5.30
2022-08-14T15:28:29.712Z,5.55
2022-08-14T15:31:20.113Z,5.25
2022-08-14T15:34:44.088Z,5.28
2022-08-14T15:37:13.075Z,6.88
2022-08-14T15:39:57.407Z,8.30
2022-08-14T15:42:38.082Z,7.93
2022-08-14T15:45:20.413Z,5.85
2022-08-14T15:48:00.572Z,7.55
2022-08-14T15:50:43.412Z,11.35
2022-08-14T15:53:31.368Z,11.52
2022-08-14T15:56:07.496Z,8.30
2022-08-14T15:58:47.307Z,13.40
2022-08-14T16:01:43.650Z,8.05
2022-08-14T16:04:27.408Z,9.93
2022-08-14T16:06:59.606Z,10.20
2022-08-14T16:10:01.351Z,11.77
2022-08-14T16:12:50.546Z,13.07
2022-08-14T16:15:25.524Z,8.82
2022-08-14T16:18:20.190Z,6.88
2022-08-14T16:21:02.154Z,8.43
2022-08-14T16:23:44.222Z,7.63
2022-08-14T16:26:29.854Z,12.63
2022-08-14T16:29:15.533Z,9.63
2022-08-14T16:31:49.947Z,10.52
2022-08-14T16:34:45.338Z,14.40
2022-08-14T16:37:33.898Z,10.85
2022-08-14T16:40:06.853Z,9.02
2022-08-14T16:43:04.146Z,11.00
2022-08-14T16:45:44.297Z,7.30
2022-08-14T16:48:55.141Z,6.45
2022-08-14T16:51:28.321Z,8.90
2022-08-14T16:54:33.702Z,9.13
2022-08-14T16:57:50.407Z,24.52
2022-08-14T17:00:43.813Z,15.63
2022-08-14T17:03:27.125Z,21.13
2022-08-14T17:06:02.206Z,17.10
2022-08-14T17:09:03.161Z,7.80
2022-08-14T17:12:01.382Z,11.73
2022-08-14T17:15:09.951Z,31.00
2022-08-14T17:17:59.761Z,23.63
2022-08-14T17:21:00.266Z,8.50
2022-08-14T17:23:35.863Z,7.38
2022-08-14T17:26:32.270Z,10.00
2022-08-14T17:29:24.312Z,14.90
2022-08-14T17:32:28.058Z,9.15
2022-08-14T17:35:16.862Z,15.60
2022-08-14T17:37:55.981Z,15.80
2022-08-14T17:40:33.239Z,14.63
2022-08-14T17:43:11.792Z,16.15
2022-08-14T17:45:55.030Z,11.20
2022-08-14T17:49:14.693Z,16.70
2022-08-14T17:51:58.853Z,9.75
2022-08-14T17:54:38.392Z,8.43
2022-08-14T17:57:13.584Z,7.03
2022-08-14T17:59:51.204Z,9.45
2022-08-14T18:02:31.457Z,14.88
2022-08-14T18:05:12.978Z,12.65
2022-08-14T18:08:31.981Z,22.65
2022-08-14T18:10:58.022Z,29.23
2022-08-14T18:13:51.572Z,23.23
2022-08-14T18:16:35.488Z,29.50
2022-08-14T18:19:17.086Z,28.45
2022-08-14T18:21:58.082Z,25.70
2022-08-14T18:24:41.455Z,26.50
2022-08-14T18:27:26.101Z,17.95
2022-08-14T18:30:33.390Z,17.35
2022-08-14T18:33:28.322Z,16.10
2022-08-14T18:36:48.388Z,15.45
2022-08-14T18:39:28.294Z,16.30
2022-08-14T18:42:23.831Z,16.58
2022-08-14T18:45:12.995Z,17.70
2022-08-14T18:48:16.550Z,19.55
2022-08-14T18:51:10.119Z,15.93
2022-08-14T18:54:02.646Z,16.63
2022-08-14T18:56:57.718Z,12.93
2022-08-14T18:59:52.766Z,14.32
2022-08-14T19:02:48.406Z,19.13
2022-08-14T19:05:41.091Z,11.95
2022-08-14T19:08:31.480Z,19.23
2022-08-14T19:11:32.101Z,23.10
2022-08-14T19:14:09.613Z,16.00
2022-08-14T19:16:54.930Z,21.83
2022-08-14T19:19:43.494Z,16.95
2022-08-14T19:22:29.812Z,19.52
2022-08-14T19:25:05.789Z,17.92
2022-08-14T19:27:46.999Z,12.00
2022-08-14T19:30:23.395Z,15.55
2022-08-14T19:33:08.732Z,15.40
2022-08-14T19:35:56.050Z,21.73
2022-08-14T19:38:54.166Z,19.50
2022-08-14T19:41:41.319Z,19.67
2022-08-14T19:44:32.016Z,21.08
2022-08-14T19:47:12.450Z,12.25
2022-08-14T19:50:07.377Z,17.08
2022-08-14T19:53:01.254Z,19.20
2022-08-14T19:55:45.678Z,15.90
2022-08-14T19:58:30.007Z,15.63
2022-08-14T20:01:12.171Z,16.55
2022-08-14T20:04:00.565Z,17.15
2022-08-14T20:06:46.750Z,21.55
2022-08-14T20:11:12.351Z,15.45
2022-08-14T20:12:28.678Z,12.52
2022-08-14T20:15:21.084Z,17.50
2022-08-14T20:17:57.410Z,14.38
2022-08-14T20:20:42.172Z,20.83
2022-08-14T20:23:23.008Z,17.05
2022-08-14T20:26:10.369Z,11.45
2022-08-14T20:28:51.754Z,19.77
2022-08-14T20:31:37.632Z,11.68
2022-08-14T20:34:24.990Z,13.02
2022-08-14T20:37:25.415Z,14.63
2022-08-14T20:40:23.369Z,15.27
2022-08-14T20:43:20.448Z,12.55
2022-08-14T20:46:03.323Z,17.25
2022-08-14T20:48:53.073Z,9.07
2022-08-14T20:51:37.034Z,13.63
2022-08-14T20:54:16.082Z,10.50
2022-08-14T20:56:56.981Z,17.80
2022-08-14T20:59:40.378Z,14.23
2022-08-14T21:02:50.435Z,12.43
2022-08-14T21:05:33.353Z,10.65
2022-08-14T21:08:25.754Z,12.57
2022-08-14T21:11:04.278Z,11.40
2022-08-14T21:14:19.435Z,13.27
2022-08-14T21:16:58.622Z,10.90
2022-08-14T21:19:43.061Z,12.95
2022-08-14T21:22:28.563Z,18.48
2022-08-14T21:25:12.582Z,30.55
2022-08-14T21:27:56.595Z,24.50
2022-08-14T21:30:46.969Z,25.45
2022-08-14T21:33:42.947Z,26.23
2022-08-14T21:36:31.053Z,25.23
2022-08-14T21:39:21.335Z,23.92
2022-08-14T21:42:05.787Z,18.20
2022-08-14T21:44:44.478Z,18.98
2022-08-14T21:47:24.475Z,18.83
2022-08-14T21:50:56.516Z,14.20
2022-08-14T21:53:20.510Z,12.82
2022-08-14T21:55:58.629Z,12.40
2022-08-14T21:58:53.086Z,10.63
2022-08-14T22:01:29.782Z,10.90
2022-08-14T22:04:33.426Z,12.05
2022-08-14T22:07:18.089Z,11.70
2022-08-14T22:09:55.343Z,10.95
2022-08-14T22:12:47.267Z,11.45
2022-08-14T22:15:39.821Z,11.60
2022-08-14T22:18:25.536Z,14.10
2022-08-14T22:21:06.041Z,13.25
2022-08-14T22:23:43.501Z,15.35
2022-08-14T22:26:20.007Z,11.05
2022-08-14T22:29:19.028Z,14.25
2022-08-14T22:32:07.187Z,11.32
2022-08-14T22:34:48.127Z,11.10
2022-08-14T22:37:25.347Z,13.68
2022-08-14T22:40:43.822Z,14.93
2022-08-14T22:43:27.667Z,20.70
2022-08-14T22:46:22.564Z,14.13
2022-08-14T22:49:15.374Z,15.73
2022-08-14T22:52:31.914Z,11.93
2022-08-14T22:55:16.055Z,15.65
2022-08-14T22:58:00.283Z,12.10
2022-08-14T23:00:43.684Z,14.07
2022-08-14T23:03:20.956Z,12.25
2022-08-14T23:05:59.286Z,14.05
2022-08-14T23:08:58.130Z,16.88
2022-08-14T23:11:45.581Z,12.90
2022-08-14T23:14:26.766Z,12.00
2022-08-14T23:17:06.009Z,14.55
2022-08-14T23:19:46.793Z,15.52
2022-08-14T23:22:26.904Z,13.27
2022-08-14T23:25:02.980Z,19.08
2022-08-14T23:28:03.639Z,17.73
2022-08-14T23:30:49.096Z,16.55
2022-08-14T23:33:33.114Z,12.18
2022-08-14T23:36:32.847Z,15.13
2022-08-14T23:39:10.255Z,12.48
2022-08-14T23:41:53.156Z,13.13
2022-08-14T23:44:35.273Z,13.13
2022-08-14T23:47:26.581Z,14.57
2022-08-14T23:50:33.872Z,16.85
2022-08-14T23:53:52.044Z,12.80
2022-08-14T23:56:32.272Z,12.93
2022-08-14T23:59:10.326Z,17.02
